createdAt,value
2022-11-25T00:00:13.873Z,0.00
2022-11-25T00:01:13.843Z,0.00
2022-11-25T00:02:13.917Z,0.00
2022-11-25T00:03:13.928Z,0.00
2022-11-25T00:04:13.834Z,0.00
2022-11-25T00:05:13.809Z,0.00
2022-11-25T00:06:13.818Z,0.00
2022-11-25T00:07:13.818Z,0.00
2022-11-25T00:08:13.794Z,0.00
2022-11-25T00:09:13.786Z,0.00
2022-11-25T00:10:13.776Z,0.00
2022-11-25T00:11:13.737Z,0.00
2022-11-25T00:12:13.757Z,0.00
2022-11-25T00:13:13.726Z,0.00
2022-11-25T00:14:13.739Z,0.00
2022-11-25T00:15:13.701Z,0.00
2022-11-25T00:16:13.766Z,0.00
2022-11-25T00:17:13.693Z,0.00
2022-11-25T00:18:13.689Z,0.00
2022-11-25T00:19:13.652Z,0.00
2022-11-25T00:20:13.657Z,0.00
2022-11-25T00:21:13.633Z,0.00
2022-11-25T00:22:13.638Z,0.00
2022-11-25T00:23:13.688Z,0.00
2022-11-25T00:24:13.619Z,0.00
2022-11-25T00:25:13.596Z,0.00
2022-11-25T00:26:13.597Z,0.00
2022-11-25T00:27:13.570Z,0.00
2022-11-25T00:28:13.586Z,0.00
2022-11-25T00:29:13.562Z,0.00
2022-11-25T00:30:13.573Z,0.00
2022-11-25T00:31:13.567Z,0.00
2022-11-25T00:32:13.554Z,0.00
2022-11-25T00:33:13.511Z,0.00
2022-11-25T00:34:13.541Z,0.00
2022-11-25T00:35:13.504Z,0.00
2022-11-25T00:36:13.508Z,0.00
2022-11-25T00:37:13.469Z,0.00
2022-11-25T00:38:13.473Z,0.00
2022-11-25T00:39:13.449Z,0.00
2022-11-25T00:40:13.467Z,0.00
2022-11-25T00:41:13.436Z,0.00
2022-11-25T00:42:13.434Z,0.00
2022-11-25T00:43:13.406Z,0.00
2022-11-25T00:44:13.410Z,0.00
2022-11-25T00:45:13.401Z,0.00
2022-11-25T00:46:13.446Z,0.00
2022-11-25T00:47:13.365Z,0.00
2022-11-25T00:48:13.371Z,0.00
2022-11-25T00:49:13.354Z,0.00
2022-11-25T00:50:13.384Z,0.00
2022-11-25T00:51:13.326Z,0.00
2022-11-25T00:52:13.332Z,0.00
2022-11-25T00:53:13.304Z,0.00
2022-11-25T00:54:13.308Z,0.00
2022-11-25T00:55:13.288Z,0.00
2022-11-25T00:56:13.302Z,0.00
2022-11-25T00:57:13.263Z,0.00
2022-11-25T00:58:13.267Z,0.00
2022-11-25T00:59:13.243Z,0.00
2022-11-25T01:00:13.264Z,0.00
2022-11-25T01:01:13.369Z,0.00
2022-11-25T01:02:13.295Z,0.00
2022-11-25T01:03:13.203Z,0.00
2022-11-25T01:04:13.221Z,0.00
2022-11-25T01:05:13.180Z,0.00
2022-11-25T01:06:13.199Z,0.00
2022-11-25T01:07:13.230Z,0.00
2022-11-25T01:08:13.179Z,0.00
2022-11-25T01:09:13.139Z,0.00
2022-11-25T01:10:13.144Z,0.00
2022-11-25T01:11:13.118Z,0.00
2022-11-25T01:12:13.151Z,0.00
2022-11-25T01:13:13.106Z,0.00
2022-11-25T01:14:13.108Z,0.00
2022-11-25T01:15:13.077Z,0.00
2022-11-25T01:16:13.127Z,0.00
2022-11-25T01:17:13.057Z,0.00
2022-11-25T01:18:13.102Z,0.00
2022-11-25T01:19:13.051Z,0.00
2022-11-25T01:20:13.060Z,0.00
2022-11-25T01:21:13.016Z,0.00
2022-11-25T01:22:13.026Z,0.00
2022-11-25T01:23:13.014Z,0.00
2022-11-25T01:24:13.000Z,0.00
2022-11-25T01:25:12.976Z,0.00
2022-11-25T01:26:12.995Z,0.00
2022-11-25T01:27:12.956Z,0.00
2022-11-25T01:28:12.961Z,0.00
2022-11-25T01:29:12.957Z,0.00
2022-11-25T01:30:12.940Z,0.00
2022-11-25T01:31:12.948Z,0.00
2022-11-25T01:32:12.934Z,0.00
2022-11-25T01:33:12.895Z,0.00
2022-11-25T01:34:12.901Z,0.00
2022-11-25T01:35:12.888Z,0.00
2022-11-25T01:36:12.879Z,0.00
2022-11-25T01:37:12.853Z,0.00
2022-11-25T01:38:12.858Z,0.00
2022-11-25T01:39:12.847Z,0.00
2022-11-25T01:40:12.863Z,0.00
2022-11-25T01:41:12.817Z,0.00
2022-11-25T01:42:12.816Z,0.00
2022-11-25T01:43:12.795Z,0.00
2022-11-25T01:44:12.824Z,0.00
2022-11-25T01:45:12.786Z,0.00
2022-11-25T01:46:12.805Z,0.00
2022-11-25T01:47:12.756Z,0.00
2022-11-25T01:48:12.772Z,0.00
2022-11-25T01:49:12.733Z,0.00
2022-11-25T01:50:12.747Z,0.00
2022-11-25T01:51:12.734Z,0.00
2022-11-25T01:52:12.731Z,0.00
2022-11-25T01:53:12.691Z,0.00
2022-11-25T01:54:12.701Z,0.00
2022-11-25T01:55:12.671Z,0.00
2022-11-25T01:56:12.679Z,0.00
2022-11-25T01:57:12.664Z,0.00
2022-11-25T01:58:12.656Z,0.00
2022-11-25T01:59:12.630Z,0.00
2022-11-25T02:00:12.638Z,0.00
2022-11-25T02:01:12.665Z,0.00
2022-11-25T02:02:12.680Z,0.00
2022-11-25T02:03:12.590Z,0.00
2022-11-25T02:04:12.594Z,0.00
2022-11-25T02:05:12.570Z,0.00
2022-11-25T02:06:12.591Z,0.00
2022-11-25T02:07:12.602Z,0.00
2022-11-25T02:08:12.555Z,0.00
2022-11-25T02:09:12.529Z,0.00
2022-11-25T02:10:12.557Z,0.00
2022-11-25T02:11:12.509Z,0.00
2022-11-25T02:12:12.537Z,0.00
2022-11-25T02:13:12.491Z,0.00
2022-11-25T02:14:12.508Z,0.00
2022-11-25T02:15:12.468Z,0.00
2022-11-25T02:16:12.551Z,0.00
2022-11-25T02:17:12.451Z,0.00
2022-11-25T02:18:12.478Z,0.00
2022-11-25T02:19:12.430Z,0.00
2022-11-25T02:20:12.454Z,0.00
2022-11-25T02:21:12.411Z,0.00
2022-11-25T02:22:12.426Z,0.00
2022-11-25T02:23:12.386Z,0.00
2022-11-25T02:24:12.396Z,0.00
2022-11-25T02:25:12.371Z,0.00
2022-11-25T02:26:12.406Z,0.00
2022-11-25T02:27:12.363Z,0.00
2022-11-25T02:28:12.374Z,0.00
2022-11-25T02:29:12.337Z,0.00
2022-11-25T02:30:12.334Z,0.00
2022-11-25T02:31:12.348Z,0.00
2022-11-25T02:32:12.328Z,0.00
2022-11-25T02:33:12.297Z,0.00
2022-11-25T02:34:12.301Z,0.00
2022-11-25T02:35:12.277Z,0.00
2022-11-25T02:36:12.286Z,0.00
2022-11-25T02:37:12.249Z,0.00
2022-11-25T02:38:12.253Z,0.00
2022-11-25T02:39:12.227Z,0.00
2022-11-25T02:40:12.229Z,0.00
2022-11-25T02:41:12.223Z,0.00
2022-11-25T02:42:12.209Z,0.00
2022-11-25T02:43:12.182Z,0.00
2022-11-25T02:44:12.200Z,0.00
2022-11-25T02:45:12.186Z,0.00
2022-11-25T02:46:15.024Z,0.00
2022-11-25T02:47:12.154Z,0.00
2022-11-25T02:48:12.162Z,0.00
2022-11-25T02:49:12.125Z,0.00
2022-11-25T02:50:12.134Z,0.00
2022-11-25T02:51:12.119Z,0.00
2022-11-25T02:52:12.128Z,0.00
2022-11-25T02:53:12.087Z,0.00
2022-11-25T02:54:12.106Z,0.00
2022-11-25T02:55:12.068Z,0.00
2022-11-25T02:56:12.075Z,0.00
2022-11-25T02:57:12.054Z,0.00
2022-11-25T02:58:12.048Z,0.00
2022-11-25T02:59:12.023Z,0.00
2022-11-25T03:00:12.028Z,0.00
2022-11-25T03:01:12.076Z,0.00
2022-11-25T03:02:12.094Z,0.00
2022-11-25T03:03:12.013Z,0.00
2022-11-25T03:04:11.990Z,0.00
2022-11-25T03:05:11.966Z,0.00
2022-11-25T03:06:11.977Z,0.00
2022-11-25T03:07:11.963Z,0.00
2022-11-25T03:08:11.975Z,0.00
2022-11-25T03:09:11.924Z,0.00
2022-11-25T03:10:11.940Z,0.00
2022-11-25T03:11:11.909Z,0.00
2022-11-25T03:12:11.928Z,0.00
2022-11-25T03:13:11.884Z,0.00
2022-11-25T03:14:11.920Z,0.00
2022-11-25T03:15:11.865Z,0.00
2022-11-25T03:16:11.957Z,0.00
2022-11-25T03:17:11.853Z,0.00
2022-11-25T03:18:11.864Z,0.00
2022-11-25T03:19:11.822Z,0.00
2022-11-25T03:20:11.825Z,0.00
2022-11-25T03:21:11.821Z,0.00
2022-11-25T03:22:11.823Z,0.00
2022-11-25T03:23:11.783Z,0.00
2022-11-25T03:24:11.810Z,0.00
2022-11-25T03:25:11.762Z,0.00
2022-11-25T03:26:11.782Z,0.00
2022-11-25T03:27:11.746Z,0.00
2022-11-25T03:28:11.746Z,0.00
2022-11-25T03:29:11.741Z,0.00
2022-11-25T03:30:11.727Z,0.00
2022-11-25T03:31:11.794Z,0.00
2022-11-25T03:32:11.807Z,0.00
2022-11-25T03:33:11.694Z,0.00
2022-11-25T03:34:11.700Z,0.00
2022-11-25T03:35:11.669Z,0.00
2022-11-25T03:36:11.680Z,0.00
2022-11-25T03:37:11.690Z,0.00
2022-11-25T03:38:11.647Z,0.00
2022-11-25T03:39:11.621Z,0.00
2022-11-25T03:40:11.636Z,0.00
2022-11-25T03:41:11.601Z,0.00
2022-11-25T03:42:11.620Z,0.00
2022-11-25T03:43:11.585Z,0.00
2022-11-25T03:44:11.585Z,0.00
2022-11-25T03:45:11.572Z,0.00
2022-11-25T03:46:11.645Z,0.00
2022-11-25T03:47:11.542Z,0.00
2022-11-25T03:48:11.562Z,0.00
2022-11-25T03:49:11.522Z,0.00
2022-11-25T03:50:11.537Z,0.00
2022-11-25T03:51:11.520Z,0.00
2022-11-25T03:52:11.491Z,0.00
2022-11-25T03:53:11.509Z,0.00
2022-11-25T03:54:11.473Z,0.00
2022-11-25T03:55:11.496Z,0.00
2022-11-25T03:56:11.459Z,0.00
2022-11-25T03:57:11.465Z,0.00
2022-11-25T03:58:11.433Z,0.00
2022-11-25T03:59:11.435Z,0.00
2022-11-25T04:00:11.408Z,0.00
2022-11-25T04:01:11.442Z,0.00
2022-11-25T04:02:11.452Z,0.00
2022-11-25T04:03:11.419Z,0.00
2022-11-25T04:04:11.370Z,0.00
2022-11-25T04:05:11.389Z,0.00
2022-11-25T04:06:11.356Z,0.00
2022-11-25T04:07:11.416Z,0.00
2022-11-25T04:08:11.340Z,0.00
2022-11-25T04:09:11.337Z,0.00
2022-11-25T04:10:11.316Z,0.00
2022-11-25T04:11:11.340Z,0.00
2022-11-25T04:12:11.287Z,0.00
2022-11-25T04:13:11.317Z,0.00
2022-11-25T04:14:11.270Z,0.00
2022-11-25T04:15:11.287Z,0.00
2022-11-25T04:16:11.246Z,0.00
2022-11-25T04:17:11.309Z,0.00
2022-11-25T04:18:11.237Z,0.00
2022-11-25T04:19:11.249Z,0.00
2022-11-25T04:20:11.206Z,0.00
2022-11-25T04:21:11.228Z,0.00
2022-11-25T04:22:11.188Z,0.00
2022-11-25T04:23:11.208Z,0.00
2022-11-25T04:24:11.169Z,0.00
2022-11-25T04:25:11.187Z,0.00
2022-11-25T04:26:11.149Z,0.00
2022-11-25T04:27:11.152Z,0.00
2022-11-25T04:28:11.144Z,0.00
2022-11-25T04:29:11.137Z,0.00
2022-11-25T04:30:11.109Z,0.00
2022-11-25T04:31:11.159Z,0.00
2022-11-25T04:32:11.096Z,0.00
2022-11-25T04:33:11.106Z,0.00
2022-11-25T04:34:11.076Z,0.00
2022-11-25T04:35:11.085Z,0.00
2022-11-25T04:36:11.056Z,0.00
2022-11-25T04:37:11.077Z,0.00
2022-11-25T04:38:11.031Z,0.00
2022-11-25T04:39:11.031Z,0.00
2022-11-25T04:40:11.007Z,0.00
2022-11-25T04:41:11.036Z,0.00
2022-11-25T04:42:10.988Z,0.00
2022-11-25T04:43:11.023Z,0.00
2022-11-25T04:44:10.967Z,0.00
2022-11-25T04:45:26.461Z,0.00
2022-11-25T04:46:14.693Z,0.00
2022-11-25T04:47:10.980Z,0.00
2022-11-25T04:48:10.953Z,0.00
2022-11-25T04:49:10.944Z,0.00
2022-11-25T04:50:10.904Z,0.00
2022-11-25T04:51:10.937Z,0.00
2022-11-25T04:52:10.886Z,0.00
2022-11-25T04:53:10.903Z,0.00
2022-11-25T04:54:16.110Z,0.00
2022-11-25T04:55:10.888Z,0.00
2022-11-25T04:56:10.853Z,0.00
2022-11-25T04:57:10.865Z,0.00
2022-11-25T04:58:10.824Z,0.00
2022-11-25T04:59:10.836Z,0.00
2022-11-25T05:00:10.805Z,0.00
2022-11-25T05:01:10.856Z,0.00
2022-11-25T05:02:10.834Z,0.00
2022-11-25T05:03:10.796Z,0.00
2022-11-25T05:04:10.773Z,0.00
2022-11-25T05:05:10.786Z,0.00
2022-11-25T05:06:10.744Z,0.00
2022-11-25T05:07:10.792Z,0.00
2022-11-25T05:08:10.738Z,0.00
2022-11-25T05:09:10.742Z,0.00
2022-11-25T05:10:10.704Z,0.00
2022-11-25T05:11:10.750Z,0.00
2022-11-25T05:12:10.682Z,0.00
2022-11-25T05:13:10.690Z,0.00
2022-11-25T05:14:10.663Z,0.00
2022-11-25T05:15:10.684Z,0.00
2022-11-25T05:16:10.799Z,0.00
2022-11-25T05:17:10.663Z,0.00
2022-11-25T05:18:10.624Z,0.00
2022-11-25T05:19:10.629Z,0.00
2022-11-25T05:20:10.620Z,0.00
2022-11-25T05:21:10.632Z,0.00
2022-11-25T05:22:10.587Z,0.00
2022-11-25T05:23:10.591Z,0.00
2022-11-25T05:24:10.597Z,0.00
2022-11-25T05:25:10.572Z,0.00
2022-11-25T05:26:10.553Z,0.00
2022-11-25T05:27:10.573Z,0.00
2022-11-25T05:28:10.529Z,0.00
2022-11-25T05:29:10.532Z,0.00
2022-11-25T05:30:10.505Z,0.00
2022-11-25T05:31:10.554Z,0.00
2022-11-25T05:32:10.498Z,0.00
2022-11-25T05:33:10.487Z,0.00
2022-11-25T05:34:10.463Z,0.00
2022-11-25T05:35:10.473Z,0.00
2022-11-25T05:36:10.441Z,0.00
2022-11-25T05:37:10.452Z,0.00
2022-11-25T05:38:10.439Z,0.00
2022-11-25T05:39:10.444Z,0.00
2022-11-25T05:40:10.407Z,0.00
2022-11-25T05:41:10.432Z,0.00
2022-11-25T05:42:10.390Z,0.00
2022-11-25T05:43:10.431Z,0.00
2022-11-25T05:44:10.361Z,0.00
2022-11-25T05:45:10.368Z,0.00
2022-11-25T05:46:10.381Z,0.00
2022-11-25T05:47:10.366Z,0.00
2022-11-25T05:48:10.353Z,0.00
2022-11-25T05:49:10.326Z,0.00
2022-11-25T05:50:10.304Z,0.00
2022-11-25T05:51:10.306Z,0.00
2022-11-25T05:52:10.295Z,0.00
2022-11-25T05:53:10.312Z,0.00
2022-11-25T05:54:10.365Z,0.00
2022-11-25T05:55:10.269Z,0.00
2022-11-25T05:56:10.256Z,0.00
2022-11-25T05:57:10.262Z,0.00
2022-11-25T05:58:10.236Z,0.00
2022-11-25T05:59:10.253Z,0.00
2022-11-25T06:00:10.203Z,0.00
2022-11-25T06:01:10.218Z,0.00
2022-11-25T06:02:10.231Z,0.00
2022-11-25T06:03:10.325Z,0.00
2022-11-25T06:04:10.157Z,0.00
2022-11-25T06:05:10.146Z,1.00
2022-11-25T06:06:10.166Z,0.00
2022-11-25T06:07:10.143Z,1.00
2022-11-25T06:08:10.066Z,1.00
2022-11-25T06:09:10.129Z,0.00
2022-11-25T06:10:10.098Z,0.00
2022-11-25T06:11:10.135Z,0.00
2022-11-25T06:12:10.081Z,0.00
2022-11-25T06:13:10.045Z,1.00
2022-11-25T06:14:10.059Z,0.00
2022-11-25T06:15:10.070Z,0.00
2022-11-25T06:16:10.093Z,0.00
2022-11-25T06:17:10.018Z,1.00
2022-11-25T06:18:09.999Z,1.00
2022-11-25T06:19:09.980Z,6.00
2022-11-25T06:20:09.955Z,3.00
2022-11-25T06:21:09.965Z,1.00
2022-11-25T06:22:09.963Z,1.00
2022-11-25T06:23:09.938Z,1.00
2022-11-25T06:24:09.907Z,1.00
2022-11-25T06:25:09.923Z,2.00
2022-11-25T06:26:09.889Z,3.00
2022-11-25T06:27:09.905Z,3.00
2022-11-25T06:28:13.592Z,4.00
2022-11-25T06:29:09.874Z,6.00
2022-11-25T06:30:09.848Z,8.00
2022-11-25T06:31:09.913Z,9.00
2022-11-25T06:32:09.826Z,9.00
2022-11-25T06:33:09.874Z,11.00
2022-11-25T06:34:09.807Z,12.00
2022-11-25T06:35:09.823Z,12.00
2022-11-25T06:36:09.785Z,13.00
2022-11-25T06:37:09.797Z,12.00
2022-11-25T06:38:09.788Z,11.00
2022-11-25T06:39:09.774Z,10.00
2022-11-25T06:40:09.754Z,9.00
2022-11-25T06:41:09.756Z,9.00
2022-11-25T06:42:09.723Z,9.00
2022-11-25T06:43:09.727Z,13.00
2022-11-25T06:44:09.742Z,12.00
2022-11-25T06:45:09.731Z,11.00
2022-11-25T06:46:09.789Z,10.00
2022-11-25T06:47:09.692Z,12.00
2022-11-25T06:48:09.673Z,17.00
2022-11-25T06:49:09.710Z,13.00
2022-11-25T06:50:09.645Z,13.00
2022-11-25T06:51:09.671Z,15.00
2022-11-25T06:52:09.624Z,18.00
2022-11-25T06:53:09.635Z,20.00
2022-11-25T06:54:09.627Z,18.00
2022-11-25T06:55:09.614Z,17.00
2022-11-25T06:56:09.587Z,19.00
2022-11-25T06:57:09.589Z,26.00
2022-11-25T06:58:34.301Z,23.00
2022-11-25T06:59:09.619Z,21.00
2022-11-25T07:00:09.579Z,23.00
2022-11-25T07:01:09.667Z,25.00
2022-11-25T07:02:09.636Z,28.00
2022-11-25T07:03:09.565Z,30.00
2022-11-25T07:04:09.513Z,33.00
2022-11-25T07:05:09.520Z,35.00
2022-11-25T07:06:09.525Z,38.00
2022-11-25T07:07:09.679Z,43.00
2022-11-25T07:08:09.470Z,47.00
2022-11-25T07:09:09.490Z,49.00
2022-11-25T07:10:09.473Z,53.00
2022-11-25T07:11:09.488Z,55.00
2022-11-25T07:12:09.429Z,59.00
2022-11-25T07:13:09.432Z,63.00
2022-11-25T07:14:09.411Z,68.00
2022-11-25T07:15:09.432Z,73.00
2022-11-25T07:16:09.433Z,77.00
2022-11-25T07:17:12.165Z,80.00
2022-11-25T07:18:09.367Z,84.00
2022-11-25T07:19:09.369Z,88.00
2022-11-25T07:20:09.342Z,92.00
2022-11-25T07:21:09.353Z,95.00
2022-11-25T07:22:09.390Z,99.00
2022-11-25T07:23:09.344Z,103.00
2022-11-25T07:24:09.302Z,107.00
2022-11-25T07:25:09.321Z,110.00
2022-11-25T07:26:09.290Z,114.00
2022-11-25T07:27:09.327Z,119.00
2022-11-25T07:28:09.266Z,124.00
2022-11-25T07:29:23.444Z,130.00
2022-11-25T07:31:27.262Z,141.00
2022-11-25T07:32:10.932Z,147.00
2022-11-25T07:33:09.325Z,155.00
2022-11-25T07:34:09.204Z,162.00
2022-11-25T07:35:09.219Z,168.00
2022-11-25T07:36:09.221Z,171.00
2022-11-25T07:37:09.200Z,172.00
2022-11-25T07:38:09.180Z,176.00
2022-11-25T07:39:09.186Z,180.00
2022-11-25T07:40:09.158Z,184.00
2022-11-25T07:41:09.134Z,187.00
2022-11-25T07:42:09.147Z,188.00
2022-11-25T07:43:09.125Z,187.00
2022-11-25T07:44:09.136Z,186.00
2022-11-25T07:45:09.109Z,186.00
2022-11-25T07:46:09.136Z,190.00
2022-11-25T07:47:09.101Z,193.00
2022-11-25T07:49:00.263Z,196.00
2022-11-25T07:50:01.192Z,196.00
2022-11-25T07:51:01.179Z,199.00
2022-11-25T07:52:01.157Z,202.00
2022-11-25T07:53:01.169Z,206.00
2022-11-25T07:54:01.144Z,209.00
2022-11-25T07:55:01.176Z,211.00
2022-11-25T07:56:01.139Z,229.00
2022-11-25T07:57:01.131Z,215.00
2022-11-25T07:58:01.094Z,229.00
2022-11-25T07:59:01.111Z,263.00
2022-11-25T08:00:01.082Z,278.00
2022-11-25T08:01:01.172Z,314.00
2022-11-25T08:02:01.196Z,286.00
2022-11-25T08:03:01.106Z,254.00
2022-11-25T08:04:01.050Z,237.00
2022-11-25T08:05:01.037Z,195.00
2022-11-25T08:06:01.030Z,281.00
2022-11-25T08:07:01.032Z,265.00
2022-11-25T08:08:01.049Z,232.00
2022-11-25T08:09:01.012Z,226.00
2022-11-25T08:10:00.988Z,256.00
2022-11-25T08:11:00.996Z,279.00
2022-11-25T08:12:00.971Z,202.00
2022-11-25T08:13:00.968Z,241.00
2022-11-25T08:14:00.954Z,213.00
2022-11-25T08:15:00.951Z,231.00
2022-11-25T08:16:00.953Z,257.00
2022-11-25T08:17:00.965Z,260.00
2022-11-25T08:18:00.900Z,257.00
2022-11-25T08:19:00.933Z,259.00
2022-11-25T08:20:00.874Z,259.00
2022-11-25T08:21:00.919Z,265.00
2022-11-25T08:22:00.874Z,264.00
2022-11-25T08:23:00.873Z,234.00
2022-11-25T08:24:00.830Z,255.00
2022-11-25T08:25:00.871Z,264.00
2022-11-25T08:26:00.816Z,242.00
2022-11-25T08:27:00.841Z,219.00
2022-11-25T08:28:00.786Z,166.00
2022-11-25T08:29:00.807Z,188.00
2022-11-25T08:30:00.775Z,332.00
2022-11-25T08:31:00.834Z,422.00
2022-11-25T08:32:00.751Z,372.00
2022-11-25T08:33:00.782Z,341.00
2022-11-25T08:34:00.732Z,293.00
2022-11-25T08:35:00.777Z,224.00
2022-11-25T08:36:00.717Z,165.00
2022-11-25T08:37:00.710Z,197.00
2022-11-25T08:38:00.692Z,438.00
2022-11-25T08:39:00.724Z,294.00
2022-11-25T08:40:01.156Z,615.00
2022-11-25T08:41:00.664Z,205.00
2022-11-25T08:42:00.647Z,494.00
2022-11-25T08:43:00.666Z,120.00
2022-11-25T08:44:00.651Z,329.00
2022-11-25T08:45:00.617Z,323.00
2022-11-25T08:46:00.639Z,297.00
2022-11-25T08:47:00.694Z,241.00
2022-11-25T08:48:00.592Z,155.00
2022-11-25T08:49:00.592Z,251.00
2022-11-25T08:50:00.600Z,427.00
2022-11-25T08:51:00.611Z,368.00
2022-11-25T08:52:00.533Z,306.00
2022-11-25T08:53:00.557Z,292.00
2022-11-25T08:54:00.542Z,307.00
2022-11-25T08:55:00.525Z,275.00
2022-11-25T08:56:00.495Z,241.00
2022-11-25T08:57:00.508Z,295.00
2022-11-25T08:58:00.467Z,329.00
2022-11-25T08:59:00.499Z,329.00
2022-11-25T09:00:00.494Z,320.00
2022-11-25T09:01:00.452Z,292.00
2022-11-25T09:02:00.634Z,301.00
2022-11-25T09:03:03.513Z,328.00
2022-11-25T09:04:00.429Z,299.00
2022-11-25T09:05:00.435Z,234.00
2022-11-25T09:06:00.420Z,195.00
2022-11-25T09:07:00.389Z,311.00
2022-11-25T09:08:00.459Z,468.00
2022-11-25T09:09:00.384Z,650.00
2022-11-25T09:10:00.356Z,872.00
2022-11-25T09:11:00.402Z,903.00
2022-11-25T09:12:00.358Z,796.00
2022-11-25T09:13:00.354Z,329.00
2022-11-25T09:14:00.388Z,397.00
2022-11-25T09:15:00.353Z,544.00
2022-11-25T09:16:00.385Z,683.00
2022-11-25T09:17:00.312Z,866.00
2022-11-25T09:18:00.271Z,697.00
2022-11-25T09:19:00.265Z,804.00
2022-11-25T09:20:00.253Z,1012.00
2022-11-25T09:21:00.246Z,1262.00
2022-11-25T09:22:00.241Z,1481.00
2022-11-25T09:23:00.238Z,1589.00
2022-11-25T09:24:00.200Z,1624.00
2022-11-25T09:25:00.221Z,1637.00
2022-11-25T09:26:00.192Z,1649.00
2022-11-25T09:27:00.203Z,1659.00
2022-11-25T09:28:00.170Z,1668.00
2022-11-25T09:29:00.187Z,1679.00
2022-11-25T09:30:00.147Z,1688.00
2022-11-25T09:31:00.217Z,1697.00
2022-11-25T09:32:00.276Z,1706.00
2022-11-25T09:33:00.143Z,1703.00
2022-11-25T09:34:00.102Z,1734.00
2022-11-25T09:35:00.109Z,2444.00
2022-11-25T09:36:00.085Z,3045.00
2022-11-25T09:37:00.116Z,2842.00
2022-11-25T09:38:00.058Z,1882.00
2022-11-25T09:39:00.077Z,790.00
2022-11-25T09:40:00.035Z,424.00
2022-11-25T09:41:00.041Z,456.00
2022-11-25T09:42:00.018Z,509.00
2022-11-25T09:43:00.024Z,557.00
2022-11-25T09:44:00.009Z,587.00
2022-11-25T09:45:00.015Z,614.00
2022-11-25T09:46:00.008Z,629.00
2022-11-25T09:47:00.070Z,652.00
2022-11-25T09:47:59.972Z,674.00
2022-11-25T09:48:59.968Z,699.00
2022-11-25T09:49:59.934Z,707.00
2022-11-25T09:50:59.941Z,714.00
2022-11-25T09:51:59.908Z,721.00
2022-11-25T09:52:59.922Z,712.00
2022-11-25T09:53:59.894Z,717.00
2022-11-25T09:54:59.898Z,691.00
2022-11-25T09:56:01.665Z,661.00
2022-11-25T09:56:59.888Z,602.00
2022-11-25T09:58:00.042Z,573.00
2022-11-25T09:58:59.856Z,589.00
2022-11-25T09:59:59.852Z,620.00
2022-11-25T10:00:59.836Z,640.00
2022-11-25T10:01:59.826Z,733.00
2022-11-25T10:03:00.013Z,760.00
2022-11-25T10:03:59.780Z,750.00
2022-11-25T10:04:59.779Z,574.00
2022-11-25T10:05:59.845Z,602.00
2022-11-25T10:06:59.805Z,988.00
2022-11-25T10:07:59.734Z,597.00
2022-11-25T10:08:59.744Z,689.00
2022-11-25T10:09:59.722Z,713.00
2022-11-25T10:10:59.757Z,699.00
2022-11-25T10:11:59.706Z,597.00
2022-11-25T10:12:59.710Z,458.00
2022-11-25T10:13:59.676Z,348.00
2022-11-25T10:14:59.694Z,390.00
2022-11-25T10:15:59.709Z,459.00
2022-11-25T10:16:59.658Z,569.00
2022-11-25T10:17:59.647Z,721.00
2022-11-25T10:18:59.644Z,898.00
2022-11-25T10:19:59.612Z,368.00
2022-11-25T10:20:59.627Z,495.00
2022-11-25T10:21:59.604Z,756.00
2022-11-25T10:22:59.640Z,573.00
2022-11-25T10:23:59.567Z,498.00
2022-11-25T10:24:59.592Z,373.00
2022-11-25T10:25:59.552Z,407.00
2022-11-25T10:26:59.562Z,393.00
2022-11-25T10:27:59.536Z,401.00
2022-11-25T10:28:59.552Z,404.00
2022-11-25T10:29:59.509Z,393.00
2022-11-25T10:30:59.561Z,391.00
2022-11-25T10:31:59.494Z,399.00
2022-11-25T10:33:02.526Z,411.00
2022-11-25T10:33:59.462Z,414.00
2022-11-25T10:34:59.472Z,439.00
2022-11-25T10:35:59.443Z,421.00
2022-11-25T10:36:59.475Z,412.00
2022-11-25T10:37:59.428Z,435.00
2022-11-25T10:38:59.425Z,459.00
2022-11-25T10:39:59.402Z,483.00
2022-11-25T10:40:59.419Z,516.00
2022-11-25T10:41:59.392Z,552.00
2022-11-25T10:42:59.414Z,588.00
2022-11-25T10:43:59.472Z,637.00
2022-11-25T10:44:59.466Z,700.00
2022-11-25T10:45:59.401Z,769.00
2022-11-25T10:47:13.337Z,874.00
2022-11-25T10:47:59.454Z,1318.00
2022-11-25T10:48:59.401Z,1053.00
2022-11-25T10:49:59.393Z,671.00
2022-11-25T10:50:59.400Z,654.00
2022-11-25T10:51:59.354Z,676.00
2022-11-25T10:52:59.410Z,717.00
2022-11-25T10:53:59.329Z,723.00
2022-11-25T10:54:59.404Z,702.00
2022-11-25T10:55:59.320Z,717.00
2022-11-25T10:56:59.333Z,748.00
2022-11-25T10:57:59.293Z,973.00
2022-11-25T10:58:59.337Z,898.00
2022-11-25T10:59:59.285Z,936.00
2022-11-25T11:00:59.298Z,919.00
2022-11-25T11:01:59.324Z,814.00
2022-11-25T11:02:59.307Z,771.00
2022-11-25T11:03:59.215Z,737.00
2022-11-25T11:04:59.274Z,662.00
2022-11-25T11:05:59.195Z,594.00
2022-11-25T11:06:59.218Z,600.00
2022-11-25T11:07:59.237Z,587.00
2022-11-25T11:08:59.195Z,630.00
2022-11-25T11:09:59.200Z,558.00
2022-11-25T11:10:59.211Z,860.00
2022-11-25T11:11:59.176Z,546.00
2022-11-25T11:12:59.159Z,1045.00
2022-11-25T11:13:59.107Z,677.00
2022-11-25T11:14:59.107Z,564.00
2022-11-25T11:15:59.140Z,502.00
2022-11-25T11:16:59.152Z,461.00
2022-11-25T11:17:59.062Z,408.00
2022-11-25T11:18:59.081Z,370.00
2022-11-25T11:19:59.119Z,325.00
2022-11-25T11:20:59.066Z,291.00
2022-11-25T11:21:59.026Z,262.00
2022-11-25T11:23:00.434Z,266.00
2022-11-25T11:23:59.001Z,277.00
2022-11-25T11:24:59.075Z,291.00
2022-11-25T11:25:59.013Z,320.00
2022-11-25T11:26:59.056Z,331.00
2022-11-25T11:27:58.963Z,323.00
2022-11-25T11:28:58.982Z,312.00
2022-11-25T11:29:58.982Z,298.00
2022-11-25T11:30:59.006Z,311.00
2022-11-25T11:31:58.937Z,334.00
2022-11-25T11:32:58.917Z,365.00
2022-11-25T11:33:58.908Z,415.00
2022-11-25T11:34:58.963Z,481.00
2022-11-25T11:35:58.889Z,539.00
2022-11-25T11:36:58.904Z,618.00
2022-11-25T11:37:58.906Z,660.00
2022-11-25T11:38:58.872Z,949.00
2022-11-25T11:39:58.860Z,900.00
2022-11-25T11:40:58.888Z,873.00
2022-11-25T11:41:58.848Z,731.00
2022-11-25T11:42:58.864Z,511.00
2022-11-25T11:43:58.871Z,516.00
2022-11-25T11:44:58.795Z,1547.00
2022-11-25T11:45:58.837Z,603.00
2022-11-25T11:46:58.831Z,602.00
2022-11-25T11:47:58.803Z,536.00
2022-11-25T11:48:58.763Z,541.00
2022-11-25T11:49:58.798Z,446.00
2022-11-25T11:50:58.764Z,415.00
2022-11-25T11:51:58.751Z,404.00
2022-11-25T11:52:58.717Z,387.00
2022-11-25T11:53:58.708Z,394.00
2022-11-25T11:54:58.699Z,406.00
2022-11-25T11:56:19.309Z,383.00
2022-11-25T11:56:58.662Z,385.00
2022-11-25T11:57:58.710Z,379.00
2022-11-25T11:58:58.646Z,350.00
2022-11-25T11:59:58.703Z,339.00
2022-11-25T12:00:58.620Z,340.00
2022-11-25T12:01:58.694Z,352.00
2022-11-25T12:02:58.666Z,361.00
2022-11-25T12:03:58.657Z,377.00
2022-11-25T12:04:58.634Z,355.00
2022-11-25T12:05:58.597Z,331.00
2022-11-25T12:06:58.532Z,325.00
2022-11-25T12:07:58.650Z,344.00
2022-11-25T12:08:58.533Z,344.00
2022-11-25T12:09:58.598Z,328.00
2022-11-25T12:10:58.513Z,294.00
2022-11-25T12:11:58.529Z,253.00
2022-11-25T12:12:58.520Z,212.00
2022-11-25T12:14:01.046Z,184.00
2022-11-25T12:14:58.551Z,185.00
2022-11-25T12:15:58.623Z,190.00
2022-11-25T12:16:58.459Z,206.00
2022-11-25T12:17:58.454Z,223.00
2022-11-25T12:18:58.422Z,228.00
2022-11-25T12:19:58.446Z,221.00
2022-11-25T12:20:58.449Z,204.00
2022-11-25T12:21:58.425Z,185.00
2022-11-25T12:22:58.381Z,193.00
2022-11-25T12:23:58.407Z,235.00
2022-11-25T12:24:58.332Z,288.00
2022-11-25T12:25:58.347Z,282.00
2022-11-25T12:26:58.314Z,247.00
2022-11-25T12:27:58.343Z,201.00
2022-11-25T12:28:58.355Z,155.00
2022-11-25T12:29:58.326Z,140.00
2022-11-25T12:31:01.956Z,143.00
2022-11-25T12:31:58.349Z,160.00
2022-11-25T12:32:58.299Z,177.00
2022-11-25T12:33:58.320Z,178.00
2022-11-25T12:34:58.228Z,146.00
2022-11-25T12:35:58.297Z,142.00
2022-11-25T12:36:58.243Z,149.00
2022-11-25T12:37:58.270Z,157.00
2022-11-25T12:38:58.201Z,164.00
2022-11-25T12:39:58.300Z,171.00
2022-11-25T12:40:58.212Z,181.00
2022-11-25T12:41:58.267Z,189.00
2022-11-25T12:42:58.174Z,199.00
2022-11-25T12:43:58.224Z,208.00
2022-11-25T12:44:58.224Z,215.00
2022-11-25T12:45:58.218Z,219.00
2022-11-25T12:46:58.152Z,237.00
2022-11-25T12:47:58.188Z,258.00
2022-11-25T12:48:58.115Z,250.00
2022-11-25T12:49:58.127Z,212.00
2022-11-25T12:50:58.087Z,208.00
2022-11-25T12:51:58.089Z,212.00
2022-11-25T12:52:58.114Z,217.00
2022-11-25T12:53:58.090Z,222.00
2022-11-25T12:54:58.055Z,227.00
2022-11-25T12:55:58.044Z,234.00